Time;durP1;ratioP1;P1;durP2;ratioP2;P2;SDS_P1;SDS_P2;PMS_P1;PMS_P2;Temp;Humidity;BMP_temperature;BMP_pressure;BME280_temperature;BME280_humidity;BME280_pressure;Samples;Min_cycle;Max_cycle;Signal;HPM_P1;HPM_P2
2021/07/27 00:01:54;;;;;;;18.13;2.90;;;;;;;15.41;100.00;95804.41;5015905;28;20740;-77
2021/07/27 00:04:20;;;;;;;3.33;2.67;;;;;;;15.55;100.00;95796.28;5014955;28;20444;-78
2021/07/27 00:06:45;;;;;;;32.90;3.90;;;;;;;15.46;100.00;95791.78;5013638;28;20428;-78
2021/07/27 00:09:11;;;;;;;25.50;3.20;;;;;;;15.44;100.00;95794.53;5015396;28;20512;-78
2021/07/27 00:11:36;;;;;;;32.73;3.50;;;;;;;15.28;100.00;95790.69;5014748;28;20420;-78
2021/07/27 00:14:01;;;;;;;15.02;3.47;;;;;;;15.37;100.00;95789.94;5013069;28;20449;-78
2021/07/27 00:16:28;;;;;;;3.40;3.07;;;;;;;15.46;100.00;95779.59;5014878;28;20736;-78
2021/07/27 00:18:54;;;;;;;34.53;4.07;;;;;;;15.44;100.00;95791.09;5013408;28;20417;-78
2021/07/27 00:21:19;;;;;;;18.83;3.43;;;;;;;15.40;100.00;95789.69;5012883;28;20432;-78
2021/07/27 00:23:44;;;;;;;14.57;3.30;;;;;;;15.47;100.00;95781.25;5014555;28;20412;-78
2021/07/27 00:26:11;;;;;;;20.03;3.47;;;;;;;15.45;100.00;95784.94;5016181;28;20419;-77
2021/07/27 00:28:36;;;;;;;4.70;3.30;;;;;;;15.52;100.00;95783.47;5017190;28;20443;-77
2021/07/27 00:31:02;;;;;;;27.43;3.53;;;;;;;15.48;100.00;95782.88;5016553;28;20507;-77
2021/07/27 00:33:29;;;;;;;23.40;3.90;;;;;;;15.52;100.00;95777.44;5016282;28;20433;-77
2021/07/27 00:35:54;;;;;;;7.70;3.03;;;;;;;15.58;100.00;95784.75;5016477;28;20424;-77
2021/07/27 00:38:22;;;;;;;4.28;2.92;;;;;;;15.64;100.00;95782.44;5016258;28;20917;-78
2021/07/27 00:40:48;;;;;;;5.95;3.05;;;;;;;15.65;100.00;95785.91;5016825;28;20938;-77
2021/07/27 00:43:15;;;;;;;7.30;3.40;;;;;;;15.49;100.00;95781.94;5016593;28;20436;-77
2021/07/27 00:45:41;;;;;;;7.90;3.33;;;;;;;15.43;100.00;95781.63;5015972;28;20417;-77
2021/07/27 00:48:07;;;;;;;4.87;2.77;;;;;;;15.36;100.00;95778.69;5016434;28;20415;-78
2021/07/27 00:50:35;;;;;;;3.67;3.07;;;;;;;15.27;100.00;95783.81;5015745;28;20416;-77
2021/07/27 00:53:02;;;;;;;3.95;3.17;;;;;;;15.11;100.00;95792.88;5016257;28;20467;-78
2021/07/27 00:55:29;;;;;;;9.77;3.47;;;;;;;14.91;100.00;95786.66;5016033;28;20417;-77
2021/07/27 00:57:55;;;;;;;5.72;3.22;;;;;;;14.97;100.00;95790.53;5015654;28;20428;-77
2021/07/27 01:00:21;;;;;;;13.40;3.88;;;;;;;14.83;100.00;95790.81;5015634;28;20425;-77
2021/07/27 01:02:47;;;;;;;10.35;3.05;;;;;;;14.92;100.00;95783.09;5015536;28;20425;-77
2021/07/27 01:05:13;;;;;;;7.20;3.20;;;;;;;14.87;100.00;95782.66;5013383;28;20420;-77
2021/07/27 01:07:40;;;;;;;29.67;4.10;;;;;;;14.83;100.00;95781.25;5016023;28;20752;-77
2021/07/27 01:10:06;;;;;;;4.93;3.15;;;;;;;15.00;100.00;95780.69;5015422;28;20417;-77
2021/07/27 01:12:33;;;;;;;12.40;3.53;;;;;;;14.96;100.00;95773.25;5014949;28;20458;-78
2021/07/27 01:14:58;;;;;;;10.43;3.10;;;;;;;15.04;100.00;95778.69;5019403;28;20455;-77
2021/07/27 01:17:23;;;;;;;7.57;3.08;;;;;;;15.06;100.00;95774.19;5018328;28;20926;-78
2021/07/27 01:43:52;;;;;;;18.10;2.97;;;;;;;15.04;100.00;95776.06;5018926;28;20917;-77
2021/07/27 01:46:18;;;;;;;43.13;4.20;;;;;;;14.93;100.00;95776.94;5018671;28;20932;-78
2021/07/27 01:48:44;;;;;;;17.88;3.20;;;;;;;14.97;100.00;95780.13;5018905;28;20413;-77
2021/07/27 01:51:21;;;;;;;30.05;3.70;;;;;;;14.83;100.00;95778.63;5018044;28;20435;-78
2021/07/27 01:53:50;;;;;;;7.33;2.97;;;;;;;14.95;100.00;95780.25;5018481;28;21005;-78
2021/07/27 01:56:17;;;;;;;5.37;3.17;;;;;;;15.03;100.00;95786.63;5017831;28;20512;-77
2021/07/27 01:58:43;;;;;;;18.47;3.60;;;;;;;14.94;100.00;95789.03;5016940;28;20536;-78
2021/07/27 02:01:08;;;;;;;9.55;2.80;;;;;;;14.94;100.00;95782.97;5016938;28;20413;-77
2021/07/27 02:03:34;;;;;;;16.30;3.45;;;;;;;14.80;100.00;95789.31;5016810;28;20524;-77
2021/07/27 02:06:00;;;;;;;23.35;4.03;;;;;;;14.74;100.00;95795.00;5016518;28;20466;-78
2021/07/27 02:08:26;;;;;;;12.60;3.17;;;;;;;14.67;100.00;95789.41;5016577;28;20499;-77
2021/07/27 02:11:12;;;;;;;3.00;2.70;;;;;;;14.80;100.00;95788.47;5015480;28;20503;-77
2021/07/27 02:13:48;;;;;;;3.13;2.47;;;;;;;14.91;100.00;95780.63;5016534;28;20429;-77
2021/07/27 02:16:14;;;;;;;2.90;2.20;;;;;;;14.96;100.00;95781.91;5016079;28;20416;-77
2021/07/27 02:18:39;;;;;;;3.65;2.90;;;;;;;15.00;100.00;95785.91;5015293;28;20492;-78
2021/07/27 02:21:05;;;;;;;4.47;2.83;;;;;;;14.99;100.00;95788.66;5016174;28;20428;-77
2021/07/27 02:23:30;;;;;;;9.97;3.00;;;;;;;15.00;100.00;95793.75;5016347;28;20416;-77
2021/07/27 02:25:57;;;;;;;6.90;2.93;;;;;;;15.03;100.00;95787.47;5016282;28;20458;-77
2021/07/27 02:28:22;;;;;;;4.38;2.60;;;;;;;15.06;100.00;95783.78;5015451;28;20503;-77
2021/07/27 02:30:55;;;;;;;9.45;2.70;;;;;;;15.14;100.00;95792.63;5015471;28;20452;-77
2021/07/27 02:33:21;;;;;;;5.90;2.88;;;;;;;15.17;100.00;95781.13;5015030;28;20432;-77
2021/07/27 02:35:47;;;;;;;7.38;3.28;;;;;;;15.37;100.00;95777.72;5014206;28;20423;-77
2021/07/27 02:38:12;;;;;;;8.17;3.83;;;;;;;15.26;100.00;95772.56;5015120;28;20409;-76
2021/07/27 02:40:38;;;;;;;15.60;3.60;;;;;;;14.94;100.00;95778.59;5015023;28;20487;-77
2021/07/27 02:43:05;;;;;;;17.83;3.90;;;;;;;14.42;100.00;95787.03;5014307;28;20519;-77
2021/07/27 02:45:30;;;;;;;8.32;3.30;;;;;;;14.44;100.00;95790.38;5012705;28;20789;-77
2021/07/27 02:47:56;;;;;;;6.45;3.00;;;;;;;14.54;100.00;95793.13;5014193;28;20440;-77
2021/07/27 02:50:22;;;;;;;15.60;3.30;;;;;;;14.49;100.00;95798.66;5014113;28;20507;-77
2021/07/27 02:52:47;;;;;;;36.10;4.23;;;;;;;14.43;100.00;95802.56;5014622;28;20440;-77
2021/07/27 02:55:13;;;;;;;10.27;3.20;;;;;;;14.45;100.00;95792.03;5014425;28;20429;-77
2021/07/27 02:57:39;;;;;;;15.77;3.50;;;;;;;14.39;100.00;95802.94;5013390;28;20425;-77
2021/07/27 03:00:07;;;;;;;15.63;3.33;;;;;;;14.37;100.00;95804.81;5014898;28;20428;-77
2021/07/27 03:02:35;;;;;;;4.68;2.80;;;;;;;14.40;100.00;95804.59;5014053;28;20421;-77
2021/07/27 03:05:00;;;;;;;4.07;3.10;;;;;;;14.41;100.00;95809.66;5016705;28;20945;-77
2021/07/27 03:07:33;;;;;;;4.70;2.83;;;;;;;14.29;100.00;95806.25;5017099;28;20443;-77
2021/07/27 03:10:18;;;;;;;4.55;3.03;;;;;;;14.38;100.00;95803.88;5017644;28;20918;-76
2021/07/27 03:12:43;;;;;;;4.22;2.75;;;;;;;14.31;100.00;95798.28;5018179;28;20412;-76
2021/07/27 03:15:11;;;;;;;4.03;2.95;;;;;;;14.11;100.00;95807.66;5017351;28;20459;-77
2021/07/27 03:17:37;;;;;;;3.80;2.80;;;;;;;14.14;100.00;95810.03;5017140;28;20478;-77
2021/07/27 03:20:03;;;;;;;5.93;2.95;;;;;;;14.20;100.00;95808.72;5015763;28;20417;-77
2021/07/27 03:22:29;;;;;;;4.43;2.78;;;;;;;14.21;100.00;95813.00;5016978;28;20435;-77
2021/07/27 03:24:54;;;;;;;4.10;2.90;;;;;;;14.24;100.00;95804.94;5016932;28;20500;-77
2021/07/27 03:27:19;;;;;;;3.40;2.73;;;;;;;14.41;100.00;95809.66;5016365;28;20433;-76
2021/07/27 03:29:45;;;;;;;4.35;2.90;;;;;;;14.37;100.00;95808.25;5018290;28;20425;-77
2021/07/27 03:32:11;;;;;;;3.00;2.67;;;;;;;14.43;100.00;95815.59;5017756;28;20417;-76
2021/07/27 03:34:37;;;;;;;5.38;2.63;;;;;;;14.45;100.00;95805.88;5017740;28;20511;-77
2021/07/27 03:37:03;;;;;;;4.10;3.03;;;;;;;14.43;100.00;95807.78;5017928;28;20909;-77
2021/07/27 03:39:29;;;;;;;4.50;3.17;;;;;;;14.37;100.00;95799.63;5017435;28;20417;-77
2021/07/27 03:41:54;;;;;;;4.40;2.63;;;;;;;14.37;100.00;95807.44;5017303;28;20910;-78
2021/07/27 03:44:19;;;;;;;3.27;2.83;;;;;;;14.47;100.00;95804.00;5015885;28;20490;-78
2021/07/27 03:46:52;;;;;;;3.20;2.70;;;;;;;14.55;100.00;95794.78;5015731;28;20424;-77
2021/07/27 03:49:19;;;;;;;5.57;3.05;;;;;;;14.61;100.00;95800.34;5017419;28;20420;-77
2021/07/27 03:51:44;;;;;;;4.60;3.10;;;;;;;14.62;100.00;95796.78;5017016;28;20924;-77
2021/07/27 03:54:10;;;;;;;3.27;2.60;;;;;;;14.67;100.00;95799.84;5016898;28;20432;-77
2021/07/27 03:56:36;;;;;;;4.00;3.00;;;;;;;14.67;100.00;95793.81;5012330;28;20578;-78
2021/07/27 03:59:01;;;;;;;5.50;2.70;;;;;;;14.73;100.00;95793.34;5008086;28;20421;-77
2021/07/27 04:01:26;;;;;;;5.43;2.80;;;;;;;14.74;100.00;95788.00;5007208;28;21191;-77
2021/07/27 04:03:52;;;;;;;3.42;2.90;;;;;;;14.77;100.00;95790.38;5008096;28;20428;-77
2021/07/27 04:06:19;;;;;;;4.20;2.80;;;;;;;14.76;100.00;95783.50;5018336;28;20790;-77
2021/07/27 04:08:44;;;;;;;4.03;2.73;;;;;;;14.70;100.00;95788.38;5017694;28;20422;-77
2021/07/27 04:11:09;;;;;;;3.00;2.70;;;;;;;14.76;100.00;95793.09;5019093;28;20492;-77
2021/07/27 04:13:35;;;;;;;4.47;2.53;;;;;;;14.87;100.00;95790.47;5010122;28;20953;-77
2021/07/27 04:16:01;;;;;;;4.07;2.85;;;;;;;14.87;100.00;95784.41;5014497;28;20871;-78
2021/07/27 04:18:27;;;;;;;4.07;2.70;;;;;;;14.88;100.00;95792.13;5020177;28;20416;-78
2021/07/27 04:20:54;;;;;;;3.47;2.90;;;;;;;14.90;100.00;95795.41;5020022;28;20451;-78
2021/07/27 04:23:21;;;;;;;3.30;2.90;;;;;;;14.90;100.00;95799.81;5019066;28;20559;-78
2021/07/27 04:25:46;;;;;;;3.17;2.60;;;;;;;14.83;100.00;95790.81;5018565;28;20435;-78
2021/07/27 04:28:11;;;;;;;4.47;3.58;;;;;;;14.84;100.00;95792.50;5015497;28;20492;-78
2021/07/27 04:30:37;;;;;;;12.50;2.93;;;;;;;14.77;100.00;95799.97;4995478;28;20506;-76
2021/07/27 04:33:02;;;;;;;3.13;2.83;;;;;;;14.76;100.00;95787.88;4993745;28;20918;-77
2021/07/27 04:35:28;;;;;;;19.25;2.70;;;;;;;14.61;100.00;95789.94;4997165;28;20422;-77
2021/07/27 04:37:56;;;;;;;6.85;3.00;;;;;;;14.65;100.00;95790.50;5006793;28;20428;-77
2021/07/27 04:40:23;;;;;;;14.53;2.50;;;;;;;14.50;100.00;95788.16;5013156;28;20529;-77
2021/07/27 04:42:49;;;;;;;5.00;2.30;;;;;;;14.55;100.00;95793.00;5015195;28;20416;-78
2021/07/27 04:45:14;;;;;;;4.78;2.20;;;;;;;14.52;100.00;95781.03;5016438;28;20405;-78
2021/07/27 04:47:40;;;;;;;14.35;2.63;;;;;;;14.39;100.00;95785.53;5012087;28;20460;-76
2021/07/27 04:50:06;;;;;;;6.83;2.10;;;;;;;14.39;100.00;95784.69;5010476;28;20516;-76
2021/07/27 04:52:32;;;;;;;2.63;2.03;;;;;;;14.51;100.00;95784.59;5011873;28;20547;-76
2021/07/27 04:54:58;;;;;;;4.30;2.07;;;;;;;14.57;100.00;95787.66;5011498;28;20467;-76
2021/07/27 04:57:25;;;;;;;4.78;2.03;;;;;;;14.57;100.00;95782.44;4996856;28;20427;-76
2021/07/27 04:59:51;;;;;;;33.85;2.85;;;;;;;14.40;100.00;95781.97;4990401;28;20499;-76
2021/07/27 05:02:16;;;;;;;14.47;2.57;;;;;;;14.38;100.00;95772.59;5000923;28;20587;-76
2021/07/27 05:04:41;;;;;;;13.98;2.63;;;;;;;14.38;100.00;95772.59;5011640;28;20416;-76
2021/07/27 05:07:07;;;;;;;3.33;2.27;;;;;;;14.50;100.00;95769.09;5011352;28;20413;-76
2021/07/27 05:09:33;;;;;;;6.10;2.70;;;;;;;14.56;100.00;95773.81;5001527;28;20422;-76
2021/07/27 05:11:58;;;;;;;7.83;2.00;;;;;;;14.57;100.00;95779.84;4997293;28;20834;-76
2021/07/27 05:14:25;;;;;;;11.80;2.43;;;;;;;14.44;100.00;95779.94;5003109;28;20428;-76
2021/07/27 05:16:50;;;;;;;16.90;2.60;;;;;;;14.43;100.00;95781.72;5011063;28;20432;-76
2021/07/27 05:19:23;;;;;;;5.38;2.20;;;;;;;14.58;100.00;95778.91;5002309;28;20451;-76
2021/07/27 05:21:52;;;;;;;3.78;2.60;;;;;;;14.73;100.00;95775.91;5005527;28;20902;-76
2021/07/27 05:24:18;;;;;;;10.77;3.40;;;;;;;14.58;100.00;95776.31;5011266;28;20416;-76
2021/07/27 05:26:43;;;;;;;8.47;3.70;;;;;;;14.48;100.00;95778.75;5009077;28;20850;-76
2021/07/27 05:29:09;;;;;;;8.17;2.97;;;;;;;14.56;100.00;95772.97;5003198;28;20498;-76
2021/07/27 05:31:37;;;;;;;5.45;3.17;;;;;;;14.79;100.00;95773.75;4990340;28;20449;-76
2021/07/27 05:34:03;;;;;;;3.38;3.08;;;;;;;14.90;100.00;95764.13;4992723;28;20433;-76
2021/07/27 05:36:28;;;;;;;10.87;3.70;;;;;;;14.86;100.00;95759.28;4993956;28;20481;-76
2021/07/27 05:38:53;;;;;;;32.47;3.90;;;;;;;14.65;100.00;95754.84;4999210;28;20410;-76
2021/07/27 05:41:19;;;;;;;5.03;3.45;;;;;;;14.89;100.00;95772.09;5007428;28;20425;-76
2021/07/27 05:43:44;;;;;;;9.83;3.80;;;;;;;15.11;100.00;95766.78;5002906;28;20490;-76
2021/07/27 05:46:09;;;;;;;7.33;3.67;;;;;;;15.13;100.00;95766.66;5010928;28;20424;-76
2021/07/27 05:48:38;;;;;;;5.05;3.33;;;;;;;15.10;100.00;95765.16;5002670;28;20497;-77
2021/07/27 05:51:04;;;;;;;7.30;3.55;;;;;;;15.31;100.00;95765.16;4984165;28;20430;-76
2021/07/27 05:53:29;;;;;;;5.82;3.60;;;;;;;15.39;100.00;95764.56;5002194;28;20760;-76
2021/07/27 05:55:57;;;;;;;4.27;3.63;;;;;;;15.31;100.00;95756.50;5009200;28;20421;-76
2021/07/27 05:58:23;;;;;;;7.18;4.38;;;;;;;15.34;100.00;95757.09;5001203;28;20904;-77
2021/07/27 06:00:48;;;;;;;4.77;3.70;;;;;;;15.47;100.00;95756.94;5009823;28;20424;-70
2021/07/27 06:03:13;;;;;;;5.10;3.97;;;;;;;15.65;100.00;95760.66;5010790;28;20456;-76
2021/07/27 06:05:40;;;;;;;6.32;4.45;;;;;;;15.71;100.00;95765.34;5010624;28;20902;-76
2021/07/27 06:08:05;;;;;;;5.30;3.40;;;;;;;15.97;100.00;95764.97;5000721;28;20418;-79
2021/07/27 06:10:31;;;;;;;4.90;3.90;;;;;;;15.90;100.00;95774.25;5007263;28;20428;-76
2021/07/27 06:12:56;;;;;;;7.70;3.60;;;;;;;16.00;100.00;95769.94;4991246;28;20832;-76
2021/07/27 06:15:22;;;;;;;6.10;3.90;;;;;;;16.08;100.00;95769.28;4990893;28;20441;-76
2021/07/27 06:17:47;;;;;;;5.67;4.27;;;;;;;16.06;100.00;95768.59;4989862;28;20920;-76
2021/07/27 06:20:13;;;;;;;4.60;3.83;;;;;;;16.07;100.00;95770.25;5003091;28;20417;-76
2021/07/27 06:22:40;;;;;;;7.38;4.15;;;;;;;16.04;100.00;95768.72;5010613;28;20511;-76
2021/07/27 06:25:10;;;;;;;6.40;3.90;;;;;;;16.23;100.00;95760.13;4997984;28;20418;-76
2021/07/27 06:27:36;;;;;;;5.68;4.32;;;;;;;16.39;100.00;95763.09;4990960;28;20481;-76
2021/07/27 06:30:02;;;;;;;4.97;3.80;;;;;;;16.58;100.00;95771.97;4999353;28;20417;-76
2021/07/27 06:32:27;;;;;;;9.95;4.25;;;;;;;16.52;100.00;95775.94;4991510;28;20505;-75
2021/07/27 06:34:52;;;;;;;4.13;3.73;;;;;;;16.58;100.00;95772.78;4991152;28;20430;-76
2021/07/27 06:37:18;;;;;;;7.35;4.35;;;;;;;16.55;100.00;95773.06;4989200;28;20500;-76
2021/07/27 06:39:44;;;;;;;18.80;4.17;;;;;;;16.68;100.00;95765.78;4993837;28;20422;-76
2021/07/27 06:42:10;;;;;;;4.15;3.72;;;;;;;16.79;100.00;95767.50;4995116;28;20414;-76
2021/07/27 06:44:35;;;;;;;6.83;3.93;;;;;;;16.73;100.00;95773.25;4994704;28;20406;-76
2021/07/27 06:47:01;;;;;;;6.18;3.85;;;;;;;16.99;100.00;95771.00;4994477;28;20497;-76
2021/07/27 06:49:26;;;;;;;4.43;3.87;;;;;;;17.14;100.00;95771.41;4994729;28;20845;-76
2021/07/27 06:51:51;;;;;;;8.20;4.10;;;;;;;17.23;100.00;95772.38;4993159;28;20432;-76
2021/07/27 06:54:17;;;;;;;6.05;4.10;;;;;;;17.32;100.00;95763.72;4994235;28;20474;-75
2021/07/27 06:56:44;;;;;;;6.37;4.70;;;;;;;17.31;100.00;95772.50;4994276;28;20726;-75
2021/07/27 06:59:10;;;;;;;5.78;4.10;;;;;;;17.35;100.00;95776.50;4994260;28;20781;-75
2021/07/27 07:01:35;;;;;;;7.35;4.53;;;;;;;17.39;100.00;95775.25;4994506;28;20427;-75
2021/07/27 07:04:01;;;;;;;6.95;4.68;;;;;;;17.45;100.00;95776.53;4994463;28;20418;-75
2021/07/27 07:06:26;;;;;;;5.60;4.03;;;;;;;17.68;100.00;95785.72;4994089;28;20418;-76
2021/07/27 07:08:52;;;;;;;6.30;4.40;;;;;;;17.66;100.00;95778.03;4995620;28;20422;-75
2021/07/27 07:11:17;;;;;;;6.22;4.40;;;;;;;18.13;100.00;95772.88;5000390;28;20445;-76
2021/07/27 07:13:44;;;;;;;5.97;4.00;;;;;;;18.51;100.00;95778.94;5001105;28;20422;-76
2021/07/27 07:16:11;;;;;;;6.73;3.90;;;;;;;18.63;100.00;95785.63;4998979;28;20450;-76
2021/07/27 07:18:37;;;;;;;4.88;3.80;;;;;;;18.81;98.27;95790.13;4995606;28;20415;-76
2021/07/27 07:21:03;;;;;;;6.18;4.32;;;;;;;18.92;99.33;95789.13;4992962;28;21001;-76
2021/07/27 07:23:29;;;;;;;6.03;4.80;;;;;;;18.83;99.70;95788.19;4994065;28;20450;-76
2021/07/27 07:25:54;;;;;;;8.13;4.70;;;;;;;19.38;100.00;95785.47;4992376;28;20848;-76
2021/07/27 07:28:20;;;;;;;5.20;4.17;;;;;;;19.48;96.97;95777.53;4992391;28;20425;-76
2021/07/27 07:30:47;;;;;;;6.53;3.90;;;;;;;19.66;93.05;95783.63;4992487;28;20430;-76
2021/07/27 07:33:13;;;;;;;7.57;4.82;;;;;;;19.32;92.88;95783.47;4992472;28;20496;-76
2021/07/27 07:35:38;;;;;;;5.43;4.17;;;;;;;19.42;94.36;95788.63;4993208;28;20916;-76
2021/07/27 07:38:04;;;;;;;6.67;4.67;;;;;;;19.85;94.23;95790.50;4992616;28;20422;-76
2021/07/27 07:40:30;;;;;;;9.45;4.47;;;;;;;20.33;93.57;95791.00;4993917;28;20460;-76
2021/07/27 07:42:56;;;;;;;6.60;4.40;;;;;;;20.52;93.10;95796.03;4993706;28;20934;-76
2021/07/27 07:45:22;;;;;;;7.28;4.53;;;;;;;19.80;89.83;95790.13;4993361;28;20423;-76
2021/07/27 07:47:49;;;;;;;6.80;4.77;;;;;;;19.58;91.68;95791.41;4993477;28;20441;-76
2021/07/27 07:50:15;;;;;;;6.35;4.43;;;;;;;19.52;91.53;95794.63;4993104;28;20497;-76
2021/07/27 07:52:40;;;;;;;5.65;4.20;;;;;;;19.69;93.53;95790.34;4992018;28;20948;-76
2021/07/27 07:55:07;;;;;;;8.10;4.83;;;;;;;19.83;93.17;95785.38;4993450;28;20509;-73
2021/07/27 07:57:32;;;;;;;5.93;4.38;;;;;;;19.96;90.84;95792.88;4993251;28;20792;-75
2021/07/27 08:00:00;;;;;;;5.78;4.80;;;;;;;20.08;91.65;95790.81;4992842;28;20410;-75
2021/07/27 08:02:26;;;;;;;7.90;5.40;;;;;;;20.37;90.96;95795.78;4992037;28;20433;-76
2021/07/27 08:04:53;;;;;;;7.25;5.10;;;;;;;20.60;89.91;95801.34;4993373;28;20473;-77
2021/07/27 08:07:18;;;;;;;7.93;4.95;;;;;;;20.74;85.37;95800.75;4993034;28;20761;-77
2021/07/27 08:09:43;;;;;;;6.90;4.70;;;;;;;20.64;85.75;95802.66;4993133;28;20438;-76
2021/07/27 08:12:09;;;;;;;6.97;4.50;;;;;;;20.71;87.13;95805.50;4991880;28;20425;-77
2021/07/27 08:14:34;;;;;;;6.13;4.90;;;;;;;20.89;83.05;95800.16;4992927;28;20484;-77
2021/07/27 08:17:00;;;;;;;5.63;4.67;;;;;;;20.64;84.80;95799.22;4993233;28;20418;-77
2021/07/27 08:19:25;;;;;;;8.23;4.43;;;;;;;21.07;85.74;95792.97;4993170;28;20530;-77
2021/07/27 08:21:52;;;;;;;9.18;4.82;;;;;;;21.19;85.22;95796.94;4993407;28;20579;-77
2021/07/27 08:24:17;;;;;;;6.57;4.40;;;;;;;21.23;83.65;95793.00;4992957;28;20417;-77
2021/07/27 08:26:43;;;;;;;5.63;4.47;;;;;;;20.90;81.09;95801.78;4991785;28;20419;-78
2021/07/27 08:29:08;;;;;;;5.63;4.32;;;;;;;21.09;80.76;95801.53;5000412;28;20417;-77
2021/07/27 08:31:34;;;;;;;7.73;5.03;;;;;;;20.90;79.59;95813.16;5011419;28;20467;-77
2021/07/27 08:33:59;;;;;;;7.95;4.35;;;;;;;21.34;81.75;95802.44;5012791;28;20439;-77
2021/07/27 08:36:24;;;;;;;6.90;4.73;;;;;;;21.65;78.87;95801.81;5013004;28;20409;-78
2021/07/27 08:38:51;;;;;;;14.50;5.13;;;;;;;22.04;75.99;95798.53;5013613;28;20413;-78
2021/07/27 08:41:17;;;;;;;6.47;4.30;;;;;;;22.15;78.17;95801.66;5013452;28;20456;-77
2021/07/27 08:43:42;;;;;;;8.10;4.55;;;;;;;22.28;72.87;95793.22;5011490;28;20452;-78
2021/07/27 08:46:08;;;;;;;9.73;4.73;;;;;;;22.41;74.72;95804.09;5011760;28;20421;-77
2021/07/27 08:48:35;;;;;;;7.68;5.15;;;;;;;22.50;75.67;95804.06;5012961;28;20417;-78
2021/07/27 08:51:01;;;;;;;7.05;5.10;;;;;;;22.68;75.31;95812.59;5012160;28;20428;-77
2021/07/27 08:53:27;;;;;;;6.05;4.55;;;;;;;22.29;69.21;95808.09;5013541;28;20417;-78
2021/07/27 08:55:54;;;;;;;6.73;4.67;;;;;;;22.51;74.16;95796.00;5011723;28;20424;-78
2021/07/27 08:58:19;;;;;;;5.20;4.63;;;;;;;23.26;71.93;95797.34;5012094;28;20426;-78
2021/07/27 09:00:45;;;;;;;8.43;4.93;;;;;;;22.70;69.17;95802.69;4993587;28;20776;-77
2021/07/27 09:03:11;;;;;;;5.90;4.45;;;;;;;23.04;72.15;95798.94;4992710;28;20996;-77
2021/07/27 09:05:38;;;;;;;4.90;4.40;;;;;;;22.86;69.23;95797.34;4993505;28;20426;-78
2021/07/27 09:08:04;;;;;;;6.85;5.13;;;;;;;23.03;68.64;95792.03;4993678;28;20429;-77
2021/07/27 09:10:33;;;;;;;5.45;4.32;;;;;;;23.09;69.76;95788.69;4993919;28;20425;-78
2021/07/27 09:13:01;;;;;;;5.60;4.33;;;;;;;23.21;66.33;95792.56;4993368;28;20542;-78
2021/07/27 09:15:28;;;;;;;4.90;4.40;;;;;;;23.28;65.86;95797.97;4991861;28;20434;-78
2021/07/27 09:17:56;;;;;;;6.72;4.20;;;;;;;23.85;67.74;95792.34;4992679;28;20419;-78
2021/07/27 09:20:30;;;;;;;6.95;4.70;;;;;;;23.78;64.71;95783.47;4992853;28;20422;-78
2021/07/27 09:22:55;;;;;;;5.03;4.55;;;;;;;24.00;67.70;95789.75;4993078;28;20430;-78
2021/07/27 09:25:25;;;;;;;8.67;4.67;;;;;;;23.98;66.32;95787.25;4992813;28;20414;-78
2021/07/27 09:28:03;;;;;;;6.35;5.10;;;;;;;24.13;63.11;95788.09;4993062;28;20419;-78
2021/07/27 09:30:29;;;;;;;5.97;4.67;;;;;;;23.84;62.21;95785.38;4992495;28;20858;-77
2021/07/27 09:32:55;;;;;;;5.38;4.03;;;;;;;24.08;62.60;95787.84;4992548;28;20457;-77
2021/07/27 09:35:21;;;;;;;6.03;4.65;;;;;;;23.84;61.79;95791.53;4992342;28;20466;-78
2021/07/27 09:37:59;;;;;;;7.43;4.60;;;;;;;23.38;64.32;95786.19;4992688;28;20934;-77
2021/07/27 09:40:25;;;;;;;10.18;4.68;;;;;;;23.72;67.86;95771.78;4992427;28;20915;-77
2021/07/27 09:42:51;;;;;;;7.15;4.80;;;;;;;23.07;62.19;95783.59;4994330;28;20426;-77
2021/07/27 09:45:18;;;;;;;6.70;4.65;;;;;;;22.89;62.47;95794.38;4991842;28;20509;-78
2021/07/27 09:47:48;;;;;;;4.95;4.07;;;;;;;23.45;68.73;95782.84;4991399;28;20792;-77
2021/07/27 09:50:15;;;;;;;4.93;4.28;;;;;;;23.77;63.26;95776.53;4992693;28;20425;-77
2021/07/27 09:52:42;;;;;;;5.70;4.63;;;;;;;24.33;63.96;95777.84;4990763;28;20418;-77
2021/07/27 09:55:09;;;;;;;11.97;4.47;;;;;;;24.33;58.44;95777.03;4991209;28;20472;-74
2021/07/27 09:57:35;;;;;;;12.82;4.97;;;;;;;24.66;60.98;95780.16;4991582;28;20828;-77
2021/07/27 10:00:00;;;;;;;6.57;4.60;;;;;;;24.91;57.11;95771.91;5006331;28;20417;-78
2021/07/27 10:02:29;;;;;;;5.33;4.43;;;;;;;24.99;60.73;95771.78;5011184;28;20467;-78
2021/07/27 10:04:55;;;;;;;6.10;4.32;;;;;;;24.82;55.18;95772.00;5010955;28;20409;-79
2021/07/27 10:07:27;;;;;;;8.10;4.30;;;;;;;24.64;57.25;95771.56;4994005;28;20410;-77
2021/07/27 10:10:05;;;;;;;6.50;4.50;;;;;;;24.85;54.06;95776.13;4992762;28;20425;-77
2021/07/27 10:12:32;;;;;;;6.23;4.10;;;;;;;24.59;56.18;95774.78;4996440;28;20420;-77
2021/07/27 10:15:09;;;;;;;4.88;4.22;;;;;;;25.06;58.32;95777.97;4997201;28;20434;-78
2021/07/27 10:17:49;;;;;;;5.30;4.50;;;;;;;25.43;59.21;95771.69;4996106;28;20453;-78
2021/07/27 10:20:21;;;;;;;8.40;4.28;;;;;;;25.30;57.21;95760.97;4994668;28;20418;-78
2021/07/27 10:22:46;;;;;;;5.45;4.07;;;;;;;24.76;54.81;95767.44;4994306;28;20431;-78
2021/07/27 10:25:12;;;;;;;6.75;4.18;;;;;;;24.82;53.76;95771.19;4995311;28;20426;-78
2021/07/27 10:27:46;;;;;;;7.20;4.20;;;;;;;25.16;55.64;95765.28;4995600;28;20496;-78
2021/07/27 10:30:13;;;;;;;7.38;3.97;;;;;;;24.53;nan;95762.25;5011381;28;20502;-78
2021/07/27 10:32:41;;;;;;;5.57;4.05;;;;;;;24.40;54.43;95767.38;5016873;28;20436;-80
2021/07/27 10:35:26;;;;;;;5.73;4.13;;;;;;;25.00;57.90;95770.81;5014265;28;20496;-78
2021/07/27 10:37:52;;;;;;;6.05;4.07;;;;;;;25.26;56.03;95770.31;5014887;28;20950;-77
2021/07/27 10:40:27;;;;;;;4.82;3.70;;;;;;;25.04;50.52;95764.13;5019933;28;20420;-77
2021/07/27 10:42:52;;;;;;;5.65;3.50;;;;;;;25.43;54.65;95769.03;5015597;28;20456;-79
2021/07/27 10:45:20;;;;;;;4.50;3.57;;;;;;;25.36;55.04;95765.50;5015613;28;20448;-79
2021/07/27 10:47:49;;;;;;;4.35;3.90;;;;;;;25.56;53.66;95771.03;5015722;28;20442;-77
2021/07/27 10:50:15;;;;;;;4.85;4.13;;;;;;;25.28;55.83;95760.31;5013833;28;20436;-78
2021/07/27 10:52:43;;;;;;;4.85;3.65;;;;;;;24.87;52.86;95766.16;5015105;28;20463;-78
2021/07/27 10:55:11;;;;;;;4.78;3.85;;;;;;;25.21;53.67;95760.25;5015173;28;20424;-78
2021/07/27 10:57:43;;;;;;;6.00;3.90;;;;;;;25.21;53.31;95751.47;5015352;28;20860;-78
2021/07/27 11:00:10;;;;;;;6.00;3.80;;;;;;;25.25;51.91;95763.34;4999049;28;20418;-78
2021/07/27 11:02:35;;;;;;;5.15;3.70;;;;;;;24.83;53.92;95763.03;4995523;28;20458;-78
2021/07/27 11:05:01;;;;;;;5.47;3.67;;;;;;;24.87;51.86;95760.84;4996058;28;20442;-78
2021/07/27 11:07:32;;;;;;;5.47;3.43;;;;;;;24.83;54.77;95763.03;4995085;28;20418;-78
2021/07/27 11:09:59;;;;;;;4.63;3.65;;;;;;;25.00;54.82;95755.72;4995783;28;20434;-77
2021/07/27 11:12:26;;;;;;;3.85;3.45;;;;;;;24.89;53.24;95755.38;4993224;28;20419;-76
2021/07/27 11:17:26;;;;;;;3.80;3.30;;;;;;;24.72;53.76;95750.28;4133154;26;20432;-77
2021/07/27 11:19:53;;;;;;;4.30;3.90;;;;;;;24.26;56.05;95760.22;4994520;28;20974;-77
2021/07/27 11:22:22;;;;;;;7.85;3.58;;;;;;;24.09;54.55;95752.44;4991971;28;20434;-78
2021/07/27 11:24:47;;;;;;;5.40;3.70;;;;;;;24.08;54.83;95744.69;4987451;28;20426;-77
2021/07/27 11:27:52;;;;;;;5.77;3.60;;;;;;;23.96;54.55;95751.41;4988289;28;20425;-77
2021/07/27 11:30:49;;;;;;;5.13;3.70;;;;;;;24.01;54.66;95746.41;4992710;28;20437;-77
2021/07/27 11:33:19;;;;;;;4.75;3.42;;;;;;;23.59;55.55;95730.06;4951837;29;20438;-77
2021/07/27 11:40:04;;;;;;;5.82;3.35;;;;;;;23.74;55.98;95727.47;4972991;28;20559;-77
2021/07/27 11:42:50;;;;;;;4.60;3.43;;;;;;;23.18;58.22;95729.53;4975877;28;20870;-77
2021/07/27 11:45:23;;;;;;;7.65;4.25;;;;;;;23.01;67.18;95723.50;4991538;28;20526;-76
2021/07/27 11:47:49;;;;;;;7.88;4.40;;;;;;;23.22;69.00;95727.38;4987618;28;20497;-77
2021/07/27 11:50:25;;;;;;;6.78;4.40;;;;;;;22.80;70.80;95723.25;4993391;28;20509;-77
2021/07/27 11:52:55;;;;;;;11.48;4.72;;;;;;;22.77;73.96;95726.25;4993586;28;20614;-76
2021/07/27 11:55:27;;;;;;;8.15;4.70;;;;;;;22.92;74.17;95717.47;4994314;28;20425;-82
2021/07/27 11:57:52;;;;;;;7.07;5.30;;;;;;;22.74;73.10;95729.25;4994922;28;20434;-77